createdAt,value
2022-09-30T04:42:34.004Z,1003.11
2022-09-30T04:43:34.932Z,1003.09
2022-09-30T04:44:34.904Z,1003.08
2022-09-30T04:45:34.945Z,1003.09
2022-09-30T04:46:34.905Z,1003.10
2022-09-30T04:47:34.863Z,1003.10
2022-09-30T04:48:34.858Z,1003.08
2022-09-30T04:49:34.869Z,1003.10
2022-09-30T04:50:34.843Z,1003.06
2022-09-30T04:51:34.836Z,1003.07
2022-09-30T04:52:34.802Z,1003.08
2022-09-30T04:53:34.790Z,1003.09
2022-09-30T04:54:42.595Z,1003.12
2022-09-30T04:55:34.768Z,1003.16
2022-09-30T04:56:34.758Z,1003.13
2022-09-30T04:57:34.751Z,1003.14
2022-09-30T04:58:36.987Z,1003.16
2022-09-30T04:59:34.731Z,1003.13
2022-09-30T05:00:34.790Z,1003.13
2022-09-30T05:01:34.727Z,1003.14
2022-09-30T05:02:34.702Z,1003.14
2022-09-30T05:03:34.683Z,1003.17
2022-09-30T05:04:34.666Z,1003.15
2022-09-30T05:05:34.662Z,1003.19
2022-09-30T05:06:34.650Z,1003.11
2022-09-30T05:07:34.632Z,1003.17
2022-09-30T05:08:34.635Z,1003.19
2022-09-30T05:09:34.666Z,1003.24
2022-09-30T05:10:34.614Z,1003.22
2022-09-30T05:11:34.631Z,1003.25
2022-09-30T05:12:34.638Z,1003.26
2022-09-30T05:13:34.564Z,1003.30
2022-09-30T05:14:34.560Z,1003.27
2022-09-30T05:15:34.551Z,1003.24
2022-09-30T05:16:34.605Z,1003.33
2022-09-30T05:17:34.545Z,1003.27
2022-09-30T05:18:34.534Z,1003.27
2022-09-30T05:19:34.532Z,1003.27
2022-09-30T05:20:34.500Z,1003.29
2022-09-30T05:21:34.482Z,1003.31
2022-09-30T05:22:34.473Z,1003.30
2022-09-30T05:23:34.455Z,1003.28
2022-09-30T05:24:34.447Z,1003.29
2022-09-30T05:25:34.435Z,1003.32
2022-09-30T05:26:34.457Z,1003.39
2022-09-30T05:27:34.420Z,1003.35
2022-09-30T05:28:34.413Z,1003.36
2022-09-30T05:29:34.390Z,1003.32
2022-09-30T05:30:34.389Z,1003.35
2022-09-30T05:31:34.421Z,1003.34
2022-09-30T05:32:34.475Z,1003.38
2022-09-30T05:33:34.342Z,1003.43
2022-09-30T05:34:34.348Z,1003.46
2022-09-30T05:35:34.322Z,1003.45
2022-09-30T05:36:34.355Z,1003.46
2022-09-30T05:37:34.378Z,1003.50
2022-09-30T05:38:34.299Z,1003.46
2022-09-30T05:39:34.282Z,1003.50
2022-09-30T05:40:34.281Z,1003.46
2022-09-30T05:41:34.264Z,1003.45
2022-09-30T05:42:34.259Z,1003.47
2022-09-30T05:43:34.293Z,1003.45
2022-09-30T05:44:34.247Z,1003.45
2022-09-30T05:45:34.226Z,1003.50
2022-09-30T05:46:34.256Z,1003.50
2022-09-30T05:47:34.202Z,1003.54
2022-09-30T05:48:34.192Z,1003.52
2022-09-30T05:49:34.169Z,1003.57
2022-09-30T05:50:34.172Z,1003.56
2022-09-30T05:51:34.166Z,1003.57
2022-09-30T05:52:34.160Z,1003.57
2022-09-30T05:53:34.134Z,1003.59
2022-09-30T05:54:34.150Z,1003.58
2022-09-30T05:55:38.448Z,1003.62
2022-09-30T05:56:34.158Z,1003.60
2022-09-30T05:57:34.103Z,1003.62
2022-09-30T05:58:34.081Z,1003.63
2022-09-30T05:59:34.076Z,1003.61
2022-09-30T06:00:34.074Z,1003.66
2022-09-30T06:01:34.083Z,1003.66
2022-09-30T06:02:34.128Z,1003.67
2022-09-30T06:03:34.030Z,1003.66
2022-09-30T06:04:34.209Z,1003.69
2022-09-30T06:05:34.950Z,1003.74
2022-09-30T06:06:40.137Z,1003.72
2022-09-30T06:07:33.988Z,1003.77
2022-09-30T06:08:33.963Z,1003.83
2022-09-30T06:09:35.080Z,1003.82
2022-09-30T06:10:33.950Z,1003.86
2022-09-30T06:11:33.933Z,1003.83
2022-09-30T06:12:34.059Z,1003.85
2022-09-30T06:13:33.908Z,1003.86
2022-09-30T06:14:33.953Z,1003.92
2022-09-30T06:15:33.898Z,1003.92
2022-09-30T06:16:34.591Z,1003.91
2022-09-30T06:17:34.080Z,1003.92
2022-09-30T06:18:33.853Z,1003.94
2022-09-30T06:19:33.837Z,1003.94
2022-09-30T06:20:33.834Z,1003.94
2022-09-30T06:21:33.827Z,1003.96
2022-09-30T06:22:33.798Z,1003.95
2022-09-30T06:23:33.801Z,1003.92
2022-09-30T06:24:33.868Z,1003.99
2022-09-30T06:25:33.786Z,1003.97
2022-09-30T06:26:33.758Z,1004.04
2022-09-30T06:27:33.752Z,1004.05
2022-09-30T06:28:33.778Z,1004.06
2022-09-30T06:29:33.946Z,1004.10
2022-09-30T06:30:37.741Z,1004.11
2022-09-30T06:31:33.773Z,1004.14
2022-09-30T06:32:33.688Z,1004.18
2022-09-30T06:33:33.691Z,1004.19
2022-09-30T06:34:33.676Z,1004.17
2022-09-30T06:35:33.699Z,1004.20
2022-09-30T06:36:34.451Z,1004.23
2022-09-30T06:37:33.661Z,1004.23
2022-09-30T06:38:33.627Z,1004.22
2022-09-30T06:39:33.626Z,1004.31
2022-09-30T06:40:33.644Z,1004.30
2022-09-30T06:41:33.597Z,1004.31
2022-09-30T06:42:34.466Z,1004.31
2022-09-30T06:43:46.945Z,1004.33
2022-09-30T06:44:39.228Z,1004.29
2022-09-30T06:45:33.659Z,1004.33
2022-09-30T06:46:33.722Z,1004.32
2022-09-30T06:47:33.584Z,1004.32
2022-09-30T06:48:38.382Z,1004.30
2022-09-30T06:49:45.180Z,1004.26
2022-09-30T06:50:33.498Z,1004.25
2022-09-30T06:51:33.488Z,1004.25
2022-09-30T06:52:33.487Z,1004.27
2022-09-30T06:53:36.601Z,1004.25
2022-09-30T06:54:34.450Z,1004.24
2022-09-30T06:55:33.449Z,1004.26
2022-09-30T06:56:33.424Z,1004.20
2022-09-30T06:57:33.472Z,1004.20
2022-09-30T06:58:33.411Z,1004.20
2022-09-30T06:59:33.417Z,1004.22
2022-09-30T07:00:33.444Z,1004.19
2022-09-30T07:01:33.380Z,1004.15
2022-09-30T07:02:33.920Z,1004.16
2022-09-30T07:03:33.367Z,1004.18
2022-09-30T07:04:33.365Z,1004.19
2022-09-30T07:05:33.406Z,1004.19
2022-09-30T07:06:34.245Z,1004.24
2022-09-30T07:07:33.315Z,1004.23
2022-09-30T07:08:33.291Z,1004.28
2022-09-30T07:09:33.316Z,1004.30
2022-09-30T07:10:33.278Z,1004.28
2022-09-30T07:11:33.278Z,1004.34
2022-09-30T07:12:33.257Z,1004.30
2022-09-30T07:13:33.950Z,1004.30
2022-09-30T07:14:33.245Z,1004.33
2022-09-30T07:15:37.467Z,1004.30
2022-09-30T07:16:33.284Z,1004.31
2022-09-30T07:17:33.200Z,1004.37
2022-09-30T07:18:33.397Z,1004.35
2022-09-30T07:19:33.187Z,1004.33
2022-09-30T07:20:33.188Z,1004.42
2022-09-30T07:21:33.151Z,1004.39
2022-09-30T07:22:33.153Z,1004.40
2022-09-30T07:23:33.378Z,1004.43
2022-09-30T07:24:33.135Z,1004.37
2022-09-30T07:25:33.100Z,1004.42
2022-09-30T07:26:34.141Z,1004.40
2022-09-30T07:27:33.081Z,1004.37
2022-09-30T07:28:33.080Z,1004.38
2022-09-30T07:29:44.622Z,1004.41
2022-09-30T07:30:33.988Z,1004.41
2022-09-30T07:31:34.946Z,1004.41
2022-09-30T07:32:33.127Z,1004.48
2022-09-30T07:33:33.023Z,1004.51
2022-09-30T07:34:33.023Z,1004.54
2022-09-30T07:35:33.029Z,1004.56
2022-09-30T07:36:34.094Z,1004.53
2022-09-30T07:37:32.980Z,1004.47
2022-09-30T07:38:32.958Z,1004.54
2022-09-30T07:39:33.440Z,1004.47
2022-09-30T07:40:36.289Z,1004.47
2022-09-30T07:41:34.169Z,1004.50
2022-09-30T07:42:32.922Z,1004.49
2022-09-30T07:43:33.112Z,1004.49
2022-09-30T07:44:35.139Z,1004.49
2022-09-30T07:45:34.400Z,1004.46
2022-09-30T07:46:33.071Z,1004.48
2022-09-30T07:47:32.933Z,1004.49
2022-09-30T07:48:32.848Z,1004.52
2022-09-30T07:49:32.841Z,1004.57
2022-09-30T07:50:32.829Z,1004.57
2022-09-30T07:51:32.835Z,1004.60
2022-09-30T07:52:33.071Z,1004.62
2022-09-30T07:53:32.824Z,1004.66
2022-09-30T07:54:34.578Z,1004.67
2022-09-30T07:55:32.782Z,1004.66
2022-09-30T07:56:51.262Z,1004.72
2022-09-30T07:57:32.764Z,1004.76
2022-09-30T07:58:32.763Z,1004.76
2022-09-30T07:59:32.741Z,1004.76
2022-09-30T08:00:48.179Z,1004.73
2022-09-30T08:01:32.756Z,1004.68
2022-09-30T08:02:32.753Z,1004.68
2022-09-30T08:03:32.700Z,1004.67
2022-09-30T08:04:32.682Z,1004.69
2022-09-30T08:05:32.663Z,1004.68
2022-09-30T08:06:32.657Z,1004.73
2022-09-30T08:07:32.737Z,1004.72
2022-09-30T08:08:32.635Z,1004.73
2022-09-30T08:09:32.676Z,1004.66
2022-09-30T08:10:32.626Z,1004.65
2022-09-30T08:11:33.734Z,1004.66
2022-09-30T08:12:33.020Z,1004.65
2022-09-30T08:13:32.807Z,1004.65
2022-09-30T08:14:32.586Z,1004.66
2022-09-30T08:15:32.609Z,1004.67
2022-09-30T08:16:32.569Z,1004.73
2022-09-30T08:17:32.634Z,1004.71
2022-09-30T08:18:32.571Z,1004.71
2022-09-30T08:19:32.514Z,1004.71
2022-09-30T08:20:32.648Z,1004.67
2022-09-30T08:21:32.489Z,1004.75
2022-09-30T08:22:32.471Z,1004.76
2022-09-30T08:23:32.688Z,1004.77
2022-09-30T08:24:33.018Z,1004.82
2022-09-30T08:25:32.853Z,1004.85
2022-09-30T08:26:32.448Z,1004.81
2022-09-30T08:27:33.477Z,1004.79
2022-09-30T08:28:32.406Z,1004.77
2022-09-30T08:30:32.404Z,1004.70
2022-09-30T08:31:32.454Z,1004.69
2022-09-30T08:32:32.369Z,1004.69
2022-09-30T08:33:32.599Z,1004.74
2022-09-30T08:34:32.336Z,1004.68
2022-09-30T08:35:32.342Z,1004.69
2022-09-30T08:36:32.970Z,1004.64
2022-09-30T08:37:32.348Z,1004.64
2022-09-30T08:38:33.675Z,1004.60
2022-09-30T08:39:32.327Z,1004.62
2022-09-30T08:40:32.321Z,1004.64
2022-09-30T08:41:32.259Z,1004.64
2022-09-30T08:42:42.451Z,1004.57
2022-09-30T08:43:32.246Z,1004.61
2022-09-30T08:44:32.275Z,1004.63
2022-09-30T08:45:32.283Z,1004.63
2022-09-30T08:46:32.207Z,1004.66
2022-09-30T08:47:32.251Z,1004.66
2022-09-30T08:48:32.180Z,1004.65
2022-09-30T08:49:32.231Z,1004.64
2022-09-30T08:50:32.187Z,1004.60
2022-09-30T08:51:32.156Z,1004.63
2022-09-30T08:52:45.065Z,1004.59
2022-09-30T08:53:32.143Z,1004.53
2022-09-30T08:54:34.532Z,1004.52
2022-09-30T08:55:32.113Z,1004.56
2022-09-30T08:56:32.110Z,1004.57
2022-09-30T08:57:32.288Z,1004.50
2022-09-30T08:58:32.153Z,1004.52
2022-09-30T08:59:32.066Z,1004.54
2022-09-30T09:00:32.056Z,1004.50
2022-09-30T09:01:32.090Z,1004.45
2022-09-30T09:02:32.079Z,1004.45
2022-09-30T09:03:32.029Z,1004.48
2022-09-30T09:04:32.032Z,1004.46
2022-09-30T09:05:32.005Z,1004.47
2022-09-30T09:06:31.977Z,1004.47
2022-09-30T09:07:31.987Z,1004.48
2022-09-30T09:08:31.992Z,1004.46
2022-09-30T09:09:31.961Z,1004.48
2022-09-30T09:10:31.931Z,1004.46
2022-09-30T09:11:32.168Z,1004.45
2022-09-30T09:12:31.916Z,1004.44
2022-09-30T09:13:31.899Z,1004.47
2022-09-30T09:14:32.138Z,1004.42
2022-09-30T09:15:31.887Z,1004.38
2022-09-30T09:16:31.902Z,1004.39
2022-09-30T09:17:31.853Z,1004.39
2022-09-30T09:18:31.852Z,1004.36
2022-09-30T09:19:31.845Z,1004.36
2022-09-30T09:20:31.881Z,1004.31
2022-09-30T09:21:31.838Z,1004.37
2022-09-30T09:22:31.825Z,1004.34
2022-09-30T09:23:31.793Z,1004.32
2022-09-30T09:24:31.779Z,1004.31
2022-09-30T09:25:31.778Z,1004.32
2022-09-30T09:26:31.833Z,1004.31
2022-09-30T09:27:32.059Z,1004.31
2022-09-30T09:28:31.847Z,1004.29
2022-09-30T09:29:31.719Z,1004.31
2022-09-30T09:30:31.707Z,1004.28
2022-09-30T09:31:31.861Z,1004.19
2022-09-30T09:32:31.711Z,1004.22
2022-09-30T09:33:31.687Z,1004.26
2022-09-30T09:34:31.673Z,1004.25
2022-09-30T09:35:31.649Z,1004.25
2022-09-30T09:36:31.645Z,1004.21
2022-09-30T09:37:31.631Z,1004.19
2022-09-30T09:38:31.626Z,1004.19
2022-09-30T09:39:31.641Z,1004.16
2022-09-30T09:40:31.649Z,1004.14
2022-09-30T09:41:31.596Z,1004.11
2022-09-30T09:42:31.670Z,1004.14
2022-09-30T09:43:31.603Z,1004.08
2022-09-30T09:44:31.611Z,1004.12
2022-09-30T09:45:31.608Z,1004.18
2022-09-30T09:46:31.536Z,1004.17
2022-09-30T09:47:31.536Z,1004.12
2022-09-30T09:48:31.601Z,1004.13
2022-09-30T09:49:31.513Z,1004.09
2022-09-30T09:50:31.522Z,1004.07
2022-09-30T09:51:31.523Z,1004.03
2022-09-30T09:52:31.462Z,1004.10
2022-09-30T09:53:31.516Z,1004.02
2022-09-30T09:54:31.457Z,1004.02
2022-09-30T09:55:31.437Z,1004.11
2022-09-30T09:56:32.664Z,1004.04
2022-09-30T09:57:31.440Z,1004.07
2022-09-30T09:58:31.436Z,1004.01
2022-09-30T09:59:31.414Z,1004.00
2022-09-30T10:00:31.393Z,1004.03
2022-09-30T10:01:31.452Z,1004.07
2022-09-30T10:02:31.427Z,1003.99
2022-09-30T10:03:31.360Z,1004.04
2022-09-30T10:04:31.387Z,1004.11
2022-09-30T10:05:31.340Z,1004.02
2022-09-30T10:06:31.325Z,1004.05
2022-09-30T10:07:31.392Z,1003.98
2022-09-30T10:08:31.320Z,1003.98
2022-09-30T10:09:31.286Z,1004.01
2022-09-30T10:10:31.269Z,1003.98
2022-09-30T10:12:41.951Z,1003.96
2022-09-30T10:13:42.979Z,1003.93
2022-09-30T10:14:42.921Z,1003.87
2022-09-30T10:15:42.950Z,1003.88
2022-09-30T10:16:42.889Z,1003.85
2022-09-30T10:17:42.871Z,1003.89
2022-09-30T10:18:42.882Z,1003.85
2022-09-30T10:19:42.872Z,1003.82
2022-09-30T10:20:42.876Z,1003.85
2022-09-30T10:21:42.883Z,1003.87
2022-09-30T10:22:42.839Z,1003.87
2022-09-30T10:23:42.805Z,1003.84
2022-09-30T10:24:42.830Z,1003.85
2022-09-30T10:25:42.782Z,1003.87
2022-09-30T10:26:46.069Z,1003.84
2022-09-30T10:27:42.846Z,1003.82
2022-09-30T10:28:42.777Z,1003.80
2022-09-30T10:29:42.756Z,1003.78
2022-09-30T10:30:43.098Z,1003.78
2022-09-30T10:31:49.628Z,1003.76
2022-09-30T10:32:42.707Z,1003.76
2022-09-30T10:33:42.712Z,1003.73
2022-09-30T10:34:42.699Z,1003.74
2022-09-30T10:35:42.711Z,1003.73
2022-09-30T10:36:42.673Z,1003.69
2022-09-30T10:37:42.663Z,1003.72
2022-09-30T10:38:42.653Z,1003.71
2022-09-30T10:39:42.628Z,1003.67
2022-09-30T10:40:42.641Z,1003.65
2022-09-30T10:41:42.696Z,1003.64
2022-09-30T10:42:42.611Z,1003.68
2022-09-30T10:43:42.607Z,1003.72
2022-09-30T10:44:42.619Z,1003.67
2022-09-30T10:45:42.630Z,1003.66
2022-09-30T10:46:42.613Z,1003.65
2022-09-30T10:47:42.546Z,1003.69
2022-09-30T10:48:42.541Z,1003.61
2022-09-30T10:49:42.561Z,1003.63
2022-09-30T10:50:42.520Z,1003.60
2022-09-30T10:51:42.513Z,1003.62
2022-09-30T10:52:42.560Z,1003.61
2022-09-30T10:53:42.484Z,1003.56
2022-09-30T10:54:42.495Z,1003.57
2022-09-30T10:55:42.460Z,1003.57
2022-09-30T10:56:42.464Z,1003.63
2022-09-30T10:57:42.483Z,1003.64
2022-09-30T10:58:42.498Z,1003.62
2022-09-30T10:59:42.453Z,1003.58
2022-09-30T11:00:42.478Z,1003.62
2022-09-30T11:01:42.492Z,1003.60
2022-09-30T11:02:42.532Z,1003.57
2022-09-30T11:03:42.530Z,1003.53
2022-09-30T11:04:42.393Z,1003.54
2022-09-30T11:05:42.373Z,1003.51
2022-09-30T11:06:42.355Z,1003.45
2022-09-30T11:07:42.332Z,1003.47
2022-09-30T11:08:42.344Z,1003.38
2022-09-30T11:09:42.325Z,1003.46
2022-09-30T11:10:42.311Z,1003.46
2022-09-30T11:11:42.300Z,1003.46
2022-09-30T11:12:42.297Z,1003.47
2022-09-30T11:13:42.306Z,1003.44
2022-09-30T11:14:42.273Z,1003.43
2022-09-30T11:15:42.257Z,1003.40
2022-09-30T11:16:42.286Z,1003.41
2022-09-30T11:17:42.234Z,1003.39
2022-09-30T11:18:42.244Z,1003.39
2022-09-30T11:19:42.203Z,1003.39
2022-09-30T11:20:42.213Z,1003.39
2022-09-30T11:21:42.187Z,1003.34
2022-09-30T11:22:42.215Z,1003.36
2022-09-30T11:23:42.276Z,1003.36
2022-09-30T11:24:42.162Z,1003.38
2022-09-30T11:25:42.182Z,1003.37
2022-09-30T11:26:42.147Z,1003.34
2022-09-30T11:27:42.225Z,1003.34
2022-09-30T11:28:42.126Z,1003.30
2022-09-30T11:29:42.139Z,1003.34
2022-09-30T11:30:42.096Z,1003.31
2022-09-30T11:31:49.300Z,1003.34
2022-09-30T11:32:42.099Z,1003.32
2022-09-30T11:33:42.083Z,1003.33
2022-09-30T11:34:42.092Z,1003.37
2022-09-30T11:35:42.057Z,1003.32
2022-09-30T11:36:43.084Z,1003.32
2022-09-30T11:37:42.050Z,1003.32
2022-09-30T11:38:42.023Z,1003.32
2022-09-30T11:39:42.001Z,1003.30
2022-09-30T11:40:42.012Z,1003.25
2022-09-30T11:41:41.999Z,1003.31
2022-09-30T11:42:42.041Z,1003.32
2022-09-30T11:43:41.968Z,1003.27
2022-09-30T11:44:41.961Z,1003.31
2022-09-30T11:45:42.025Z,1003.30
2022-09-30T11:46:41.946Z,1003.25
2022-09-30T11:47:41.929Z,1003.29
2022-09-30T11:48:41.934Z,1003.28
2022-09-30T11:49:41.936Z,1003.31
2022-09-30T11:50:41.919Z,1003.32
2022-09-30T11:51:41.876Z,1003.21
2022-09-30T11:52:41.897Z,1003.27
2022-09-30T11:53:41.863Z,1003.27
2022-09-30T11:54:41.918Z,1003.30
2022-09-30T11:55:41.837Z,1003.31
2022-09-30T11:56:41.829Z,1003.32
2022-09-30T11:57:41.841Z,1003.32
2022-09-30T11:58:42.559Z,1003.30
2022-09-30T11:59:41.829Z,1003.33
2022-09-30T12:00:45.550Z,1003.34
